sensor_id;sensor_type;location;lat;lon;timestamp;pressure;altitude;pressure_sealevel;temperature;humidity
47330;BME280;33060;50.178;7.570;2024-03-02T00:00:50;95711.97;;;5.99;100.00
47330;BME280;33060;50.178;7.570;2024-03-02T00:03:18;95705.34;;;6.06;100.00
47330;BME280;33060;50.178;7.570;2024-03-02T00:05:51;95707.25;;;6.04;100.00
47330;BME280;33060;50.178;7.570;2024-03-02T00:08:27;95711.22;;;6.09;100.00
47330;BME280;33060;50.178;7.570;2024-03-02T00:11:00;95701.09;;;6.16;100.00
47330;BME280;33060;50.178;7.570;2024-03-02T00:13:27;95698.28;;;6.19;100.00
47330;BME280;33060;50.178;7.570;2024-03-02T00:15:56;95704.06;;;6.35;100.00
47330;BME280;33060;50.178;7.570;2024-03-02T00:18:34;95702.63;;;6.42;100.00
47330;BME280;33060;50.178;7.570;2024-03-02T00:21:03;95699.31;;;6.51;100.00
47330;BME280;33060;50.178;7.570;2024-03-02T00:23:30;95695.06;;;6.62;100.00
47330;BME280;33060;50.178;7.570;2024-03-02T00:25:58;95706.00;;;6.56;100.00
47330;BME280;33060;50.178;7.570;2024-03-02T00:28:33;95701.72;;;6.66;100.00
47330;BME280;33060;50.178;7.570;2024-03-02T00:31:09;95697.09;;;6.69;100.00
47330;BME280;33060;50.178;7.570;2024-03-02T00:33:41;95696.47;;;6.77;100.00
47330;BME280;33060;50.178;7.570;2024-03-02T00:36:10;95697.44;;;6.76;100.00
47330;BME280;33060;50.178;7.570;2024-03-02T00:38:47;95698.19;;;6.78;100.00
47330;BME280;33060;50.178;7.570;2024-03-02T00:41:21;95691.00;;;6.69;100.00
47330;BME280;33060;50.178;7.570;2024-03-02T00:44:00;95695.16;;;6.60;100.00
47330;BME280;33060;50.178;7.570;2024-03-02T00:46:29;95678.13;;;6.66;100.00
47330;BME280;33060;50.178;7.570;2024-03-02T00:48:59;95681.13;;;6.61;100.00
47330;BME280;33060;50.178;7.570;2024-03-02T00:51:29;95683.50;;;6.53;100.00
47330;BME280;33060;50.178;7.570;2024-03-02T00:54:03;95683.34;;;6.43;100.00
47330;BME280;33060;50.178;7.570;2024-03-02T00:56:32;95674.63;;;6.32;100.00
47330;BME280;33060;50.178;7.570;2024-03-02T00:58:59;95666.75;;;6.20;100.00
47330;BME280;33060;50.178;7.570;2024-03-02T01:01:25;95667.69;;;6.08;100.00
47330;BME280;33060;50.178;7.570;2024-03-02T01:03:52;95661.09;;;6.03;100.00
47330;BME280;33060;50.178;7.570;2024-03-02T01:06:19;95658.22;;;5.94;100.00
47330;BME280;33060;50.178;7.570;2024-03-02T01:08:46;95658.94;;;5.97;100.00
47330;BME280;33060;50.178;7.570;2024-03-02T01:11:17;95669.09;;;5.88;100.00
47330;BME280;33060;50.178;7.570;2024-03-02T01:13:45;95663.25;;;5.85;100.00
47330;BME280;33060;50.178;7.570;2024-03-02T01:16:13;95660.66;;;5.85;100.00
47330;BME280;33060;50.178;7.570;2024-03-02T01:18:40;95657.91;;;5.86;100.00
47330;BME280;33060;50.178;7.570;2024-03-02T01:21:07;95668.50;;;5.85;100.00
47330;BME280;33060;50.178;7.570;2024-03-02T01:23:33;95666.69;;;5.74;100.00
47330;BME280;33060;50.178;7.570;2024-03-02T01:26:00;95666.13;;;5.58;100.00
47330;BME280;33060;50.178;7.570;2024-03-02T01:28:27;95670.41;;;5.59;100.00
47330;BME280;33060;50.178;7.570;2024-03-02T01:30:54;95660.88;;;5.58;100.00
47330;BME280;33060;50.178;7.570;2024-03-02T01:33:21;95655.09;;;5.65;100.00
47330;BME280;33060;50.178;7.570;2024-03-02T01:35:47;95660.38;;;5.53;100.00
47330;BME280;33060;50.178;7.570;2024-03-02T01:38:14;95666.66;;;5.50;100.00
47330;BME280;33060;50.178;7.570;2024-03-02T01:40:41;95664.19;;;5.36;100.00
47330;BME280;33060;50.178;7.570;2024-03-02T01:43:08;95658.53;;;5.42;100.00
47330;BME280;33060;50.178;7.570;2024-03-02T01:45:35;95669.13;;;5.41;100.00
47330;BME280;33060;50.178;7.570;2024-03-02T01:48:05;95668.66;;;5.47;100.00
47330;BME280;33060;50.178;7.570;2024-03-02T01:50:34;95670.34;;;5.48;100.00
47330;BME280;33060;50.178;7.570;2024-03-02T01:53:01;95672.44;;;5.43;100.00
47330;BME280;33060;50.178;7.570;2024-03-02T01:55:29;95664.25;;;5.47;100.00
47330;BME280;33060;50.178;7.570;2024-03-02T01:57:57;95663.00;;;5.53;100.00
47330;BME280;33060;50.178;7.570;2024-03-02T02:00:25;95659.97;;;5.46;100.00
47330;BME280;33060;50.178;7.570;2024-03-02T02:02:54;95656.97;;;5.63;100.00
47330;BME280;33060;50.178;7.570;2024-03-02T02:05:21;95659.97;;;5.70;100.00
47330;BME280;33060;50.178;7.570;2024-03-02T02:07:49;95651.06;;;5.73;100.00
47330;BME280;33060;50.178;7.570;2024-03-02T02:10:15;95646.03;;;5.82;100.00
47330;BME280;33060;50.178;7.570;2024-03-02T02:12:42;95645.78;;;5.85;100.00
47330;BME280;33060;50.178;7.570;2024-03-02T02:15:26;95646.47;;;5.76;100.00
47330;BME280;33060;50.178;7.570;2024-03-02T02:17:55;95638.06;;;5.84;100.00
47330;BME280;33060;50.178;7.570;2024-03-02T02:20:22;95635.56;;;5.82;100.00
47330;BME280;33060;50.178;7.570;2024-03-02T02:23:01;95635.19;;;5.87;100.00
47330;BME280;33060;50.178;7.570;2024-03-02T02:25:29;95626.94;;;5.93;100.00
47330;BME280;33060;50.178;7.570;2024-03-02T02:27:57;95626.81;;;5.94;100.00
47330;BME280;33060;50.178;7.570;2024-03-02T02:30:29;95628.03;;;6.02;100.00
47330;BME280;33060;50.178;7.570;2024-03-02T02:32:57;95619.91;;;5.93;100.00
47330;BME280;33060;50.178;7.570;2024-03-02T02:35:24;95631.63;;;5.88;100.00
47330;BME280;33060;50.178;7.570;2024-03-02T02:37:52;95626.75;;;5.83;100.00
47330;BME280;33060;50.178;7.570;2024-03-02T02:40:19;95619.22;;;5.79;100.00
47330;BME280;33060;50.178;7.570;2024-03-02T02:42:46;95622.22;;;5.85;100.00
47330;BME280;33060;50.178;7.570;2024-03-02T02:45:14;95623.19;;;5.84;100.00
47330;BME280;33060;50.178;7.570;2024-03-02T02:47:42;95607.06;;;5.66;100.00
47330;BME280;33060;50.178;7.570;2024-03-02T02:50:10;95619.78;;;5.71;100.00
47330;BME280;33060;50.178;7.570;2024-03-02T02:52:39;95614.53;;;5.60;100.00
47330;BME280;33060;50.178;7.570;2024-03-02T02:55:08;95611.78;;;5.61;100.00
47330;BME280;33060;50.178;7.570;2024-03-02T02:57:36;95601.00;;;5.66;100.00
47330;BME280;33060;50.178;7.570;2024-03-02T03:00:22;95604.59;;;5.76;100.00
47330;BME280;33060;50.178;7.570;2024-03-02T03:02:49;95613.53;;;5.74;100.00
47330;BME280;33060;50.178;7.570;2024-03-02T03:05:17;95616.50;;;5.80;100.00
47330;BME280;33060;50.178;7.570;2024-03-02T03:07:44;95609.84;;;5.76;100.00
47330;BME280;33060;50.178;7.570;2024-03-02T03:10:12;95604.06;;;5.60;100.00
47330;BME280;33060;50.178;7.570;2024-03-02T03:12:40;95610.69;;;5.53;100.00
47330;BME280;33060;50.178;7.570;2024-03-02T03:15:09;95616.06;;;5.38;100.00
47330;BME280;33060;50.178;7.570;2024-03-02T03:17:36;95613.03;;;5.45;100.00
47330;BME280;33060;50.178;7.570;2024-03-02T03:20:04;95626.09;;;5.45;100.00
47330;BME280;33060;50.178;7.570;2024-03-02T03:22:32;95615.72;;;5.32;100.00
47330;BME280;33060;50.178;7.570;2024-03-02T03:24:59;95621.13;;;5.29;100.00
47330;BME280;33060;50.178;7.570;2024-03-02T03:27:26;95619.28;;;5.31;100.00
47330;BME280;33060;50.178;7.570;2024-03-02T03:29:53;95621.06;;;5.30;100.00
47330;BME280;33060;50.178;7.570;2024-03-02T03:32:21;95630.03;;;5.26;100.00
47330;BME280;33060;50.178;7.570;2024-03-02T03:34:48;95630.03;;;5.26;100.00
47330;BME280;33060;50.178;7.570;2024-03-02T03:37:15;95624.09;;;5.24;100.00
47330;BME280;33060;50.178;7.570;2024-03-02T03:39:42;95618.16;;;5.22;100.00
47330;BME280;33060;50.178;7.570;2024-03-02T03:42:08;95622.25;;;5.37;100.00
47330;BME280;33060;50.178;7.570;2024-03-02T03:44:35;95624.41;;;5.20;100.00
47330;BME280;33060;50.178;7.570;2024-03-02T03:47:02;95620.03;;;5.20;100.00
47330;BME280;33060;50.178;7.570;2024-03-02T03:49:29;95619.59;;;5.26;100.00
47330;BME280;33060;50.178;7.570;2024-03-02T03:51:56;95628.59;;;5.22;100.00
47330;BME280;33060;50.178;7.570;2024-03-02T03:54:22;95628.50;;;5.24;100.00
47330;BME280;33060;50.178;7.570;2024-03-02T03:56:49;95625.75;;;5.25;100.00
47330;BME280;33060;50.178;7.570;2024-03-02T03:59:16;95631.94;;;5.24;100.00
47330;BME280;33060;50.178;7.570;2024-03-02T04:01:42;95644.03;;;5.01;100.00
47330;BME280;33060;50.178;7.570;2024-03-02T04:04:09;95646.63;;;5.01;100.00
47330;BME280;33060;50.178;7.570;2024-03-02T04:06:36;95631.88;;;5.13;100.00
47330;BME280;33060;50.178;7.570;2024-03-02T04:09:03;95626.66;;;5.13;100.00
47330;BME280;33060;50.178;7.570;2024-03-02T04:11:30;95624.38;;;5.32;100.00
47330;BME280;33060;50.178;7.570;2024-03-02T04:13:57;95625.38;;;5.43;100.00
47330;BME280;33060;50.178;7.570;2024-03-02T04:16:24;95632.50;;;5.41;100.00
47330;BME280;33060;50.178;7.570;2024-03-02T04:18:51;95621.16;;;5.53;100.00
47330;BME280;33060;50.178;7.570;2024-03-02T04:21:18;95623.31;;;5.59;100.00
47330;BME280;33060;50.178;7.570;2024-03-02T04:23:44;95624.72;;;5.52;100.00
47330;BME280;33060;50.178;7.570;2024-03-02T04:26:11;95621.25;;;5.51;100.00
47330;BME280;33060;50.178;7.570;2024-03-02T04:28:38;95620.91;;;5.56;100.00
47330;BME280;33060;50.178;7.570;2024-03-02T04:31:04;95629.78;;;5.66;100.00
47330;BME280;33060;50.178;7.570;2024-03-02T04:33:31;95622.69;;;5.79;100.00
47330;BME280;33060;50.178;7.570;2024-03-02T04:35:58;95631.03;;;5.84;100.00
47330;BME280;33060;50.178;7.570;2024-03-02T04:38:24;95629.66;;;5.91;100.00
47330;BME280;33060;50.178;7.570;2024-03-02T04:40:51;95633.84;;;5.94;100.00
47330;BME280;33060;50.178;7.570;2024-03-02T04:43:18;95639.53;;;5.99;100.00
47330;BME280;33060;50.178;7.570;2024-03-02T04:45:45;95639.91;;;5.94;100.00
47330;BME280;33060;50.178;7.570;2024-03-02T04:48:12;95644.00;;;6.10;100.00
47330;BME280;33060;50.178;7.570;2024-03-02T04:50:40;95639.22;;;6.15;100.00
47330;BME280;33060;50.178;7.570;2024-03-02T04:53:07;95646.13;;;6.16;100.00
47330;BME280;33060;50.178;7.570;2024-03-02T04:55:34;95646.31;;;6.26;100.00
47330;BME280;33060;50.178;7.570;2024-03-02T04:58:01;95649.75;;;6.26;100.00
47330;BME280;33060;50.178;7.570;2024-03-02T05:00:28;95652.63;;;6.34;100.00
47330;BME280;33060;50.178;7.570;2024-03-02T05:02:54;95654.63;;;6.42;100.00
47330;BME280;33060;50.178;7.570;2024-03-02T05:05:21;95648.00;;;6.49;100.00
47330;BME280;33060;50.178;7.570;2024-03-02T05:07:48;95649.06;;;6.58;100.00
47330;BME280;33060;50.178;7.570;2024-03-02T05:10:15;95655.38;;;6.44;100.00
47330;BME280;33060;50.178;7.570;2024-03-02T05:12:42;95662.66;;;6.51;100.00
47330;BME280;33060;50.178;7.570;2024-03-02T05:15:13;95658.34;;;6.39;100.00
47330;BME280;33060;50.178;7.570;2024-03-02T05:17:41;95664.66;;;6.59;100.00
47330;BME280;33060;50.178;7.570;2024-03-02T05:20:10;95682.41;;;6.56;100.00
47330;BME280;33060;50.178;7.570;2024-03-02T05:22:37;95677.69;;;6.61;100.00
47330;BME280;33060;50.178;7.570;2024-03-02T05:25:05;95672.41;;;6.49;100.00
47330;BME280;33060;50.178;7.570;2024-03-02T05:27:32;95676.34;;;6.55;100.00
47330;BME280;33060;50.178;7.570;2024-03-02T05:30:00;95675.63;;;6.64;100.00
47330;BME280;33060;50.178;7.570;2024-03-02T05:32:27;95670.72;;;6.60;100.00
47330;BME280;33060;50.178;7.570;2024-03-02T05:34:53;95673.22;;;6.50;100.00
47330;BME280;33060;50.178;7.570;2024-03-02T05:37:21;95670.41;;;6.53;100.00
47330;BME280;33060;50.178;7.570;2024-03-02T05:39:48;95680.00;;;6.41;100.00
47330;BME280;33060;50.178;7.570;2024-03-02T05:42:15;95673.22;;;6.50;100.00
47330;BME280;33060;50.178;7.570;2024-03-02T05:44:43;95670.41;;;6.53;100.00
47330;BME280;33060;50.178;7.570;2024-03-02T05:47:10;95674.06;;;6.50;100.00
47330;BME280;33060;50.178;7.570;2024-03-02T05:49:36;95663.09;;;6.34;100.00
47330;BME280;33060;50.178;7.570;2024-03-02T05:52:03;95668.09;;;6.37;100.00
47330;BME280;33060;50.178;7.570;2024-03-02T05:54:30;95672.97;;;6.42;100.00
47330;BME280;33060;50.178;7.570;2024-03-02T05:56:56;95681.44;;;6.34;100.00
47330;BME280;33060;50.178;7.570;2024-03-02T05:59:23;95672.25;;;6.40;100.00
47330;BME280;33060;50.178;7.570;2024-03-02T06:01:50;95683.81;;;6.37;100.00
47330;BME280;33060;50.178;7.570;2024-03-02T06:04:19;95687.38;;;6.36;100.00
47330;BME280;33060;50.178;7.570;2024-03-02T06:06:46;95683.34;;;6.43;100.00
47330;BME280;33060;50.178;7.570;2024-03-02T06:09:13;95685.59;;;6.37;100.00
47330;BME280;33060;50.178;7.570;2024-03-02T06:11:41;95695.00;;;6.39;100.00
47330;BME280;33060;50.178;7.570;2024-03-02T06:14:08;95689.28;;;6.34;100.00
47330;BME280;33060;50.178;7.570;2024-03-02T06:16:35;95695.94;;;6.38;100.00
47330;BME280;33060;50.178;7.570;2024-03-02T06:19:02;95700.94;;;6.41;100.00
47330;BME280;33060;50.178;7.570;2024-03-02T06:21:29;95687.03;;;6.41;100.00
47330;BME280;33060;50.178;7.570;2024-03-02T06:23:56;95690.91;;;6.24;100.00
47330;BME280;33060;50.178;7.570;2024-03-02T06:26:23;95696.78;;;6.04;100.00
47330;BME280;33060;50.178;7.570;2024-03-02T06:28:52;95701.44;;;5.87;100.00
47330;BME280;33060;50.178;7.570;2024-03-02T06:31:18;95710.38;;;5.85;100.00
47330;BME280;33060;50.178;7.570;2024-03-02T06:33:45;95711.91;;;5.87;100.00
47330;BME280;33060;50.178;7.570;2024-03-02T06:36:12;95713.34;;;6.04;100.00
47330;BME280;33060;50.178;7.570;2024-03-02T06:38:39;95713.28;;;6.17;100.00
47330;BME280;33060;50.178;7.570;2024-03-02T06:41:09;95721.88;;;6.30;100.00
47330;BME280;33060;50.178;7.570;2024-03-02T06:43:36;95715.94;;;6.39;100.00
47330;BME280;33060;50.178;7.570;2024-03-02T06:46:03;95714.00;;;6.19;100.00
47330;BME280;33060;50.178;7.570;2024-03-02T06:48:29;95708.13;;;6.15;100.00
47330;BME280;33060;50.178;7.570;2024-03-02T06:50:57;95716.50;;;6.20;100.00
47330;BME280;33060;50.178;7.570;2024-03-02T06:53:25;95714.00;;;5.95;100.00
47330;BME280;33060;50.178;7.570;2024-03-02T06:55:52;95712.09;;;5.97;100.00
47330;BME280;33060;50.178;7.570;2024-03-02T06:58:18;95719.34;;;5.93;100.00
47330;BME280;33060;50.178;7.570;2024-03-02T07:00:45;95718.13;;;6.10;100.00
47330;BME280;33060;50.178;7.570;2024-03-02T07:03:12;95718.81;;;6.01;100.00
47330;BME280;33060;50.178;7.570;2024-03-02T07:05:39;95722.06;;;6.16;100.00
47330;BME280;33060;50.178;7.570;2024-03-02T07:08:06;95723.66;;;6.30;100.00
47330;BME280;33060;50.178;7.570;2024-03-02T07:10:32;95724.78;;;6.49;100.00
47330;BME280;33060;50.178;7.570;2024-03-02T07:12:59;95730.53;;;6.66;100.00
47330;BME280;33060;50.178;7.570;2024-03-02T07:15:26;95726.50;;;6.73;100.00
47330;BME280;33060;50.178;7.570;2024-03-02T07:17:54;95732.47;;;6.86;100.00
47330;BME280;33060;50.178;7.570;2024-03-02T07:20:20;95729.25;;;6.83;100.00
47330;BME280;33060;50.178;7.570;2024-03-02T07:22:47;95729.25;;;6.94;100.00
47330;BME280;33060;50.178;7.570;2024-03-02T07:25:13;95728.44;;;6.82;100.00
47330;BME280;33060;50.178;7.570;2024-03-02T07:27:43;95733.88;;;6.68;100.00
47330;BME280;33060;50.178;7.570;2024-03-02T07:30:13;95731.22;;;6.57;100.00
47330;BME280;33060;50.178;7.570;2024-03-02T07:32:40;95728.38;;;6.60;100.00
47330;BME280;33060;50.178;7.570;2024-03-02T07:35:08;95732.44;;;6.64;100.00
47330;BME280;33060;50.178;7.570;2024-03-02T07:37:35;95738.25;;;6.56;100.00
47330;BME280;33060;50.178;7.570;2024-03-02T07:40:02;95741.63;;;6.69;100.00
47330;BME280;33060;50.178;7.570;2024-03-02T07:42:29;95742.88;;;6.99;100.00
47330;BME280;33060;50.178;7.570;2024-03-02T07:44:56;95731.78;;;7.29;100.00
47330;BME280;33060;50.178;7.570;2024-03-02T07:47:23;95738.81;;;7.40;100.00
47330;BME280;33060;50.178;7.570;2024-03-02T07:49:49;95741.75;;;7.69;100.00
47330;BME280;33060;50.178;7.570;2024-03-02T07:52:16;95742.59;;;7.69;100.00
47330;BME280;33060;50.178;7.570;2024-03-02T07:54:43;95745.69;;;7.74;100.00
47330;BME280;33060;50.178;7.570;2024-03-02T07:57:10;95744.91;;;7.94;100.00
47330;BME280;33060;50.178;7.570;2024-03-02T07:59:37;95747.28;;;7.98;100.00
47330;BME280;33060;50.178;7.570;2024-03-02T08:02:05;95741.81;;;8.01;100.00
47330;BME280;33060;50.178;7.570;2024-03-02T08:04:31;95743.31;;;8.14;100.00
47330;BME280;33060;50.178;7.570;2024-03-02T08:06:58;95747.66;;;8.25;100.00
47330;BME280;33060;50.178;7.570;2024-03-02T08:09:25;95747.63;;;8.47;100.00
47330;BME280;33060;50.178;7.570;2024-03-02T08:11:52;95740.00;;;8.44;99.85
47330;BME280;33060;50.178;7.570;2024-03-02T08:14:19;95751.22;;;8.46;98.02
47330;BME280;33060;50.178;7.570;2024-03-02T08:16:45;95743.47;;;8.66;97.34
47330;BME280;33060;50.178;7.570;2024-03-02T08:19:12;95752.63;;;8.71;97.90
47330;BME280;33060;50.178;7.570;2024-03-02T08:21:39;95747.22;;;9.15;94.93
47330;BME280;33060;50.178;7.570;2024-03-02T08:24:06;95743.72;;;9.04;93.17
47330;BME280;33060;50.178;7.570;2024-03-02T08:26:33;95758.22;;;8.99;95.65
47330;BME280;33060;50.178;7.570;2024-03-02T08:29:00;95751.34;;;8.66;97.53
47330;BME280;33060;50.178;7.570;2024-03-02T08:31:30;95749.94;;;8.83;99.14
47330;BME280;33060;50.178;7.570;2024-03-02T08:33:57;95760.97;;;8.76;99.68
47330;BME280;33060;50.178;7.570;2024-03-02T08:36:24;95753.16;;;8.86;96.47
47330;BME280;33060;50.178;7.570;2024-03-02T08:38:50;95754.44;;;8.92;95.27
47330;BME280;33060;50.178;7.570;2024-03-02T08:41:18;95752.63;;;8.50;97.46
47330;BME280;33060;50.178;7.570;2024-03-02T08:43:44;95747.38;;;8.71;100.00
47330;BME280;33060;50.178;7.570;2024-03-02T08:46:11;95753.13;;;9.07;95.95
47330;BME280;33060;50.178;7.570;2024-03-02T08:48:38;95744.06;;;9.21;94.21
47330;BME280;33060;50.178;7.570;2024-03-02T08:51:04;95726.19;;;9.55;88.06
47330;BME280;33060;50.178;7.570;2024-03-02T08:53:34;95725.53;;;9.62;86.73
47330;BME280;33060;50.178;7.570;2024-03-02T08:56:00;95738.34;;;9.86;84.97
47330;BME280;33060;50.178;7.570;2024-03-02T08:58:28;95733.69;;;9.59;86.78
47330;BME280;33060;50.178;7.570;2024-03-02T09:00:55;95736.22;;;9.80;87.96
47330;BME280;33060;50.178;7.570;2024-03-02T09:03:22;95739.97;;;9.78;90.74
47330;BME280;33060;50.178;7.570;2024-03-02T09:05:49;95743.47;;;9.98;85.21
47330;BME280;33060;50.178;7.570;2024-03-02T09:08:15;95739.63;;;10.21;85.45
47330;BME280;33060;50.178;7.570;2024-03-02T09:10:42;95744.75;;;10.13;82.82
47330;BME280;33060;50.178;7.570;2024-03-02T09:13:10;95736.34;;;10.38;83.41
47330;BME280;33060;50.178;7.570;2024-03-02T09:15:37;95742.78;;;9.96;84.22
47330;BME280;33060;50.178;7.570;2024-03-02T09:18:06;95736.69;;;9.95;86.76
47330;BME280;33060;50.178;7.570;2024-03-02T09:20:33;95745.69;;;9.83;86.59
47330;BME280;33060;50.178;7.570;2024-03-02T09:23:00;95740.75;;;10.09;87.81
47330;BME280;33060;50.178;7.570;2024-03-02T09:25:27;95742.06;;;10.43;81.20
47330;BME280;33060;50.178;7.570;2024-03-02T09:27:54;95752.44;;;10.35;84.39
47330;BME280;33060;50.178;7.570;2024-03-02T09:30:20;95745.09;;;10.48;83.26
47330;BME280;33060;50.178;7.570;2024-03-02T09:32:47;95742.56;;;10.66;83.15
47330;BME280;33060;50.178;7.570;2024-03-02T09:35:16;95743.66;;;10.93;81.23
47330;BME280;33060;50.178;7.570;2024-03-02T09:37:42;95726.34;;;10.42;82.49
47330;BME280;33060;50.178;7.570;2024-03-02T09:40:10;95740.09;;;10.36;83.89
47330;BME280;33060;50.178;7.570;2024-03-02T09:42:37;95735.75;;;10.15;85.56
47330;BME280;33060;50.178;7.570;2024-03-02T09:45:04;95734.00;;;10.26;88.74
47330;BME280;33060;50.178;7.570;2024-03-02T09:47:31;95723.72;;;10.52;86.45
47330;BME280;33060;50.178;7.570;2024-03-02T09:49:58;95731.03;;;10.77;89.26
47330;BME280;33060;50.178;7.570;2024-03-02T09:52:26;95719.13;;;10.73;83.44
47330;BME280;33060;50.178;7.570;2024-03-02T09:54:52;95708.19;;;10.48;87.97
47330;BME280;33060;50.178;7.570;2024-03-02T09:57:19;95717.47;;;10.72;85.97
47330;BME280;33060;50.178;7.570;2024-03-02T09:59:46;95717.13;;;10.94;84.60
47330;BME280;33060;50.178;7.570;2024-03-02T10:02:12;95722.72;;;10.72;86.34
47330;BME280;33060;50.178;7.570;2024-03-02T10:04:39;95718.16;;;10.55;84.68
47330;BME280;33060;50.178;7.570;2024-03-02T10:07:10;95713.59;;;10.47;85.39
47330;BME280;33060;50.178;7.570;2024-03-02T10:09:38;95713.56;;;10.18;88.91
47330;BME280;33060;50.178;7.570;2024-03-02T10:12:07;95716.91;;;10.20;92.72
47330;BME280;33060;50.178;7.570;2024-03-02T10:14:34;95715.41;;;10.46;88.45
47330;BME280;33060;50.178;7.570;2024-03-02T10:17:02;95704.94;;;10.16;89.20
47330;BME280;33060;50.178;7.570;2024-03-02T10:19:30;95697.75;;;10.18;88.88
47330;BME280;33060;50.178;7.570;2024-03-02T10:22:02;95706.22;;;10.51;86.70
47330;BME280;33060;50.178;7.570;2024-03-02T10:24:36;95708.63;;;10.44;85.09
47330;BME280;33060;50.178;7.570;2024-03-02T10:27:19;95702.63;;;10.61;85.47
47330;BME280;33060;50.178;7.570;2024-03-02T10:29:49;95700.41;;;10.57;85.01
47330;BME280;33060;50.178;7.570;2024-03-02T10:32:16;95713.38;;;10.97;87.16
47330;BME280;33060;50.178;7.570;2024-03-02T10:34:46;95706.75;;;11.30;81.79
47330;BME280;33060;50.178;7.570;2024-03-02T10:37:16;95707.44;;;10.85;82.16
47330;BME280;33060;50.178;7.570;2024-03-02T10:39:46;95719.88;;;11.02;84.67
47330;BME280;33060;50.178;7.570;2024-03-02T10:42:14;95713.81;;;11.39;78.13
47330;BME280;33060;50.178;7.570;2024-03-02T10:44:41;95718.22;;;11.48;78.36
47330;BME280;33060;50.178;7.570;2024-03-02T10:47:12;95716.44;;;11.67;77.71
47330;BME280;33060;50.178;7.570;2024-03-02T10:49:41;95713.56;;;11.32;74.92
47330;BME280;33060;50.178;7.570;2024-03-02T10:52:10;95727.19;;;10.52;79.50
47330;BME280;33060;50.178;7.570;2024-03-02T10:54:37;95731.91;;;10.48;80.59
47330;BME280;33060;50.178;7.570;2024-03-02T10:57:07;95727.75;;;10.56;82.87
47330;BME280;33060;50.178;7.570;2024-03-02T10:59:37;95717.59;;;11.27;77.28
47330;BME280;33060;50.178;7.570;2024-03-02T11:02:12;95710.31;;;11.01;80.36
47330;BME280;33060;50.178;7.570;2024-03-02T11:04:40;95704.88;;;11.13;78.34
47330;BME280;33060;50.178;7.570;2024-03-02T11:07:10;95705.41;;;11.16;76.22
47330;BME280;33060;50.178;7.570;2024-03-02T11:09:59;95709.78;;;10.98;75.71
47330;BME280;33060;50.178;7.570;2024-03-02T11:12:31;95703.44;;;11.18;79.25
47330;BME280;33060;50.178;7.570;2024-03-02T11:14:58;95709.75;;;11.08;74.23
47330;BME280;33060;50.178;7.570;2024-03-02T11:17:27;95705.25;;;11.18;77.97
47330;BME280;33060;50.178;7.570;2024-03-02T11:19:54;95700.50;;;11.31;78.18
47330;BME280;33060;50.178;7.570;2024-03-02T11:22:21;95703.94;;;11.69;74.96
47330;BME280;33060;50.178;7.570;2024-03-02T11:24:49;95695.13;;;11.78;77.25
47330;BME280;33060;50.178;7.570;2024-03-02T11:33:05;95704.00;;;11.86;71.44
47330;BME280;33060;50.178;7.570;2024-03-02T11:35:41;95696.66;;;11.80;69.84
47330;BME280;33060;50.178;7.570;2024-03-02T11:38:15;95693.19;;;11.80;75.83
47330;BME280;33060;50.178;7.570;2024-03-02T11:40:42;95689.28;;;11.56;72.64
47330;BME280;33060;50.178;7.570;2024-03-02T11:43:10;95686.47;;;11.58;76.38
47330;BME280;33060;50.178;7.570;2024-03-02T11:45:38;95681.34;;;11.84;73.80
47330;BME280;33060;50.178;7.570;2024-03-02T11:48:08;95681.44;;;11.92;71.57
47330;BME280;33060;50.178;7.570;2024-03-02T11:50:47;95686.44;;;12.13;67.67
47330;BME280;33060;50.178;7.570;2024-03-02T11:53:15;95686.72;;;11.92;69.36
47330;BME280;33060;50.178;7.570;2024-03-02T11:55:44;95677.22;;;11.99;67.57
47330;BME280;33060;50.178;7.570;2024-03-02T11:58:14;95679.16;;;11.97;68.82
47330;BME280;33060;50.178;7.570;2024-03-02T12:00:41;95674.72;;;12.15;67.87
47330;BME280;33060;50.178;7.570;2024-03-02T12:03:10;95674.63;;;12.07;69.49
47330;BME280;33060;50.178;7.570;2024-03-02T12:05:39;95665.66;;;12.00;69.95
47330;BME280;33060;50.178;7.570;2024-03-02T12:08:06;95659.84;;;11.97;68.41
47330;BME280;33060;50.178;7.570;2024-03-02T12:10:35;95655.25;;;12.16;69.46
47330;BME280;33060;50.178;7.570;2024-03-02T12:13:04;95655.59;;;11.86;68.86
47330;BME280;33060;50.178;7.570;2024-03-02T12:15:34;95658.84;;;11.80;69.45
47330;BME280;33060;50.178;7.570;2024-03-02T12:18:04;95651.41;;;11.66;72.32
47330;BME280;33060;50.178;7.570;2024-03-02T12:20:32;95654.13;;;11.46;69.42
47330;BME280;33060;50.178;7.570;2024-03-02T12:23:01;95653.91;;;11.40;71.85
47330;BME280;33060;50.178;7.570;2024-03-02T12:25:30;95650.91;;;11.52;70.06
47330;BME280;33060;50.178;7.570;2024-03-02T12:28:00;95657.38;;;11.68;70.42
47330;BME280;33060;50.178;7.570;2024-03-02T12:30:29;95661.75;;;11.77;69.05
47330;BME280;33060;50.178;7.570;2024-03-02T12:32:57;95661.88;;;12.03;69.67
47330;BME280;33060;50.178;7.570;2024-03-02T12:35:25;95650.50;;;12.64;67.24
47330;BME280;33060;50.178;7.570;2024-03-02T12:37:53;95649.22;;;12.50;65.97
47330;BME280;33060;50.178;7.570;2024-03-02T12:40:21;95645.91;;;12.48;65.48
47330;BME280;33060;50.178;7.570;2024-03-02T12:42:50;95651.97;;;12.40;66.57
47330;BME280;33060;50.178;7.570;2024-03-02T12:45:18;95652.13;;;12.21;65.02
47330;BME280;33060;50.178;7.570;2024-03-02T12:47:52;95651.91;;;11.97;66.03
47330;BME280;33060;50.178;7.570;2024-03-02T12:50:19;95642.03;;;12.16;66.41
47330;BME280;33060;50.178;7.570;2024-03-02T12:52:53;95641.72;;;12.20;69.22
47330;BME280;33060;50.178;7.570;2024-03-02T12:55:21;95640.66;;;12.30;70.69
47330;BME280;33060;50.178;7.570;2024-03-02T12:57:52;95629.50;;;12.19;70.00
47330;BME280;33060;50.178;7.570;2024-03-02T13:00:20;95630.91;;;12.31;70.12
47330;BME280;33060;50.178;7.570;2024-03-02T13:02:50;95630.25;;;12.29;68.19
47330;BME280;33060;50.178;7.570;2024-03-02T13:05:19;95630.47;;;12.18;69.24
47330;BME280;33060;50.178;7.570;2024-03-02T13:07:47;95628.25;;;12.31;67.49
47330;BME280;33060;50.178;7.570;2024-03-02T13:10:15;95621.03;;;12.15;69.00